createdAt,value
2018-03-26T00:00:04.340Z,123.90
2018-03-26T00:02:32.242Z,149.93
2018-03-26T00:05:00.152Z,139.20
2018-03-26T00:07:34.139Z,141.30
2018-03-26T00:10:02.068Z,158.50
2018-03-26T00:12:29.967Z,142.63
2018-03-26T00:14:57.897Z,154.17
2018-03-26T00:17:25.793Z,148.63
2018-03-26T00:19:53.696Z,143.00
2018-03-26T00:22:21.615Z,164.60
2018-03-26T00:24:49.511Z,159.87
2018-03-26T00:27:17.416Z,160.10
2018-03-26T00:29:45.319Z,157.80
2018-03-26T00:32:13.220Z,158.13
2018-03-26T00:34:41.143Z,158.27
2018-03-26T00:37:09.060Z,148.00
2018-03-26T00:39:36.990Z,177.13
2018-03-26T00:42:04.939Z,176.53
2018-03-26T00:44:32.845Z,163.20
2018-03-26T00:47:00.751Z,145.03
2018-03-26T00:49:28.686Z,154.27
2018-03-26T00:51:56.574Z,167.90
2018-03-26T00:54:24.506Z,169.07
2018-03-26T00:56:52.611Z,173.93
2018-03-26T00:59:20.495Z,172.67
2018-03-26T01:01:48.415Z,176.10
2018-03-26T01:04:16.330Z,173.67
2018-03-26T01:06:44.228Z,154.47
2018-03-26T01:09:12.144Z,147.57
2018-03-26T01:11:40.094Z,153.47
2018-03-26T01:14:08.006Z,157.53
2018-03-26T01:16:35.910Z,154.90
2018-03-26T01:19:03.831Z,159.70
2018-03-26T01:21:31.790Z,168.40
2018-03-26T01:23:59.715Z,169.23
2018-03-26T01:26:27.701Z,157.93
2018-03-26T01:28:55.602Z,177.23
2018-03-26T01:31:23.495Z,155.47
2018-03-26T01:33:51.389Z,140.53
2018-03-26T01:36:19.301Z,145.27
2018-03-26T01:38:47.207Z,135.00
2018-03-26T01:41:15.111Z,132.83
2018-03-26T01:43:43.054Z,137.73
2018-03-26T01:46:10.966Z,135.73
2018-03-26T01:48:38.912Z,143.30
2018-03-26T01:51:07.067Z,140.27
2018-03-26T01:53:34.995Z,156.47
2018-03-26T01:56:02.914Z,140.27
2018-03-26T01:58:30.825Z,146.03
2018-03-26T02:00:58.719Z,144.77
2018-03-26T02:03:26.625Z,129.43
2018-03-26T02:05:54.549Z,132.00
2018-03-26T02:08:22.465Z,134.17
2018-03-26T02:10:50.401Z,134.37
2018-03-26T02:13:18.319Z,125.70
2018-03-26T02:15:46.239Z,132.43
2018-03-26T02:18:14.395Z,133.30
2018-03-26T02:20:42.323Z,118.13
2018-03-26T02:23:10.243Z,114.20
2018-03-26T02:25:38.147Z,120.37
2018-03-26T02:28:06.072Z,109.10
2018-03-26T02:30:33.971Z,112.67
2018-03-26T02:33:01.926Z,111.77
2018-03-26T02:35:29.860Z,103.40
2018-03-26T02:37:57.831Z,106.17
2018-03-26T02:40:25.736Z,114.60
2018-03-26T02:42:53.636Z,118.83
2018-03-26T02:45:21.564Z,106.73
2018-03-26T02:47:49.475Z,111.63
2018-03-26T02:50:17.389Z,111.17
2018-03-26T02:52:45.475Z,108.60
2018-03-26T02:55:13.376Z,102.93
2018-03-26T02:57:41.301Z,113.40
2018-03-26T03:00:09.216Z,108.03
2018-03-26T03:02:37.124Z,132.13
2018-03-26T03:05:05.308Z,147.07
2018-03-26T03:07:33.260Z,129.27
2018-03-26T03:10:01.240Z,157.20
2018-03-26T03:12:29.180Z,129.27
2018-03-26T03:14:57.096Z,124.97
2018-03-26T03:17:24.992Z,120.70
2018-03-26T03:22:30.048Z,111.17
2018-03-26T03:24:57.951Z,108.97
2018-03-26T03:27:25.911Z,96.23
2018-03-26T03:29:53.848Z,102.70
2018-03-26T03:32:21.759Z,106.73
2018-03-26T03:34:49.683Z,96.47
2018-03-26T03:37:17.599Z,78.77
2018-03-26T03:39:45.513Z,93.60
2018-03-26T03:42:13.445Z,85.83
2018-03-26T03:44:41.378Z,83.90
2018-03-26T03:47:09.296Z,90.70
2018-03-26T03:49:37.207Z,94.97
2018-03-26T03:52:05.123Z,90.47
2018-03-26T03:54:33.422Z,104.47
2018-03-26T03:57:01.456Z,118.57
2018-03-26T03:59:29.346Z,120.97
2018-03-26T04:01:57.296Z,103.77
2018-03-26T04:04:25.340Z,124.00
2018-03-26T04:06:53.267Z,106.97
2018-03-26T04:09:21.163Z,100.23
2018-03-26T04:11:49.091Z,93.70
2018-03-26T04:14:17.027Z,89.93
2018-03-26T04:16:44.981Z,83.18
2018-03-26T04:19:12.890Z,81.07
2018-03-26T04:21:40.830Z,79.00
2018-03-26T04:24:08.752Z,73.27
2018-03-26T04:26:36.687Z,81.63
2018-03-26T04:29:04.611Z,82.90
2018-03-26T04:31:32.527Z,78.87
2018-03-26T04:34:00.471Z,81.77
2018-03-26T04:36:29.064Z,66.40
2018-03-26T04:38:56.977Z,55.60
2018-03-26T04:41:24.936Z,64.87
2018-03-26T04:43:52.874Z,53.97
2018-03-26T04:46:20.787Z,45.12
2018-03-26T04:48:48.687Z,60.90
2018-03-26T04:51:16.644Z,50.85
2018-03-26T04:53:44.563Z,55.50
2018-03-26T04:56:12.655Z,54.40
2018-03-26T04:58:40.556Z,48.63
2018-03-26T05:01:08.471Z,48.17
2018-03-26T05:03:38.047Z,39.97
2018-03-26T05:06:06.003Z,37.85
2018-03-26T05:08:33.940Z,50.30
2018-03-26T05:11:01.878Z,40.80
2018-03-26T05:13:29.799Z,37.38
2018-03-26T05:15:57.735Z,38.75
2018-03-26T05:18:25.716Z,41.78
2018-03-26T05:20:53.655Z,24.60
2018-03-26T05:23:21.579Z,23.27
2018-03-26T05:25:49.493Z,30.62
2018-03-26T05:28:17.422Z,18.85
2018-03-26T05:30:45.340Z,25.00
2018-03-26T05:33:13.272Z,29.42
2018-03-26T05:35:41.352Z,24.27
2018-03-26T05:38:09.246Z,21.45
2018-03-26T05:40:37.138Z,17.70
2018-03-26T05:43:05.068Z,16.08
2018-03-26T05:45:33.652Z,19.02
2018-03-26T05:48:01.566Z,15.75
2018-03-26T05:50:29.485Z,14.40
2018-03-26T05:52:57.415Z,21.77
2018-03-26T05:55:25.339Z,14.30
2018-03-26T05:57:53.737Z,13.25
2018-03-26T06:00:21.659Z,11.75
2018-03-26T06:02:49.589Z,12.85
2018-03-26T06:05:17.536Z,17.05
2018-03-26T06:07:45.468Z,17.17
2018-03-26T06:10:13.422Z,11.38
2018-03-26T06:12:41.479Z,13.38
2018-03-26T06:15:09.431Z,18.77
2018-03-26T06:17:37.347Z,9.95
2018-03-26T06:20:05.319Z,9.88
2018-03-26T06:22:33.247Z,11.23
2018-03-26T06:25:01.148Z,11.50
2018-03-26T06:27:29.935Z,15.15
2018-03-26T06:29:57.864Z,11.93
2018-03-26T06:32:25.800Z,10.70
2018-03-26T06:34:54.064Z,10.52
2018-03-26T06:37:40.923Z,13.90
2018-03-26T06:40:08.858Z,14.18
2018-03-26T06:42:36.796Z,7.65
2018-03-26T06:45:04.707Z,11.43
2018-03-26T06:47:32.764Z,9.57
2018-03-26T06:50:00.711Z,9.23
2018-03-26T06:52:28.672Z,11.82
2018-03-26T06:54:56.623Z,14.35
2018-03-26T06:57:24.540Z,8.20
2018-03-26T06:59:52.471Z,11.88
2018-03-26T07:02:20.657Z,12.55
2018-03-26T07:04:48.564Z,8.23
2018-03-26T07:07:16.491Z,9.13
2018-03-26T07:09:44.460Z,10.63
2018-03-26T07:12:12.416Z,9.77
2018-03-26T07:14:40.316Z,22.05
2018-03-26T07:17:08.239Z,10.55
2018-03-26T07:19:36.159Z,9.48
2018-03-26T07:22:04.079Z,11.88
2018-03-26T07:24:32.000Z,9.02
2018-03-26T07:26:59.927Z,8.65
2018-03-26T07:29:27.866Z,9.15
2018-03-26T07:31:55.891Z,8.07
2018-03-26T07:34:23.809Z,13.23
2018-03-26T07:36:51.781Z,14.87
2018-03-26T07:39:19.724Z,7.45
2018-03-26T07:41:47.708Z,6.78
2018-03-26T07:44:15.640Z,6.60
2018-03-26T07:46:43.596Z,6.60
2018-03-26T07:49:11.499Z,8.02
2018-03-26T07:51:39.428Z,9.30
2018-03-26T07:54:07.363Z,7.95
2018-03-26T07:56:35.272Z,6.57
2018-03-26T07:59:03.177Z,7.68
2018-03-26T08:01:31.424Z,8.90
2018-03-26T08:03:59.323Z,7.07
2018-03-26T08:06:27.258Z,8.85
2018-03-26T08:08:55.211Z,8.57
2018-03-26T08:11:23.169Z,14.07
2018-03-26T08:13:51.114Z,11.07
2018-03-26T08:16:19.083Z,9.52
2018-03-26T08:18:47.036Z,8.30
2018-03-26T08:21:15.015Z,7.53
2018-03-26T08:23:42.978Z,7.12
2018-03-26T08:26:11.162Z,9.90
2018-03-26T08:28:39.064Z,9.80
2018-03-26T08:31:07.016Z,13.65
2018-03-26T08:33:35.047Z,10.65
2018-03-26T08:36:02.949Z,7.07
2018-03-26T08:38:30.936Z,8.48
2018-03-26T08:40:58.886Z,12.95
2018-03-26T08:43:26.829Z,10.73
2018-03-26T08:45:54.765Z,16.30
2018-03-26T08:48:22.695Z,13.18
2018-03-26T08:50:50.627Z,11.82
2018-03-26T08:53:18.559Z,14.60
2018-03-26T08:55:46.505Z,22.05
2018-03-26T08:58:14.409Z,34.42
2018-03-26T09:00:42.319Z,30.80
2018-03-26T09:03:10.291Z,20.12
2018-03-26T09:05:38.191Z,27.45
2018-03-26T09:08:06.102Z,26.75
2018-03-26T09:10:34.139Z,28.00
2018-03-26T09:13:02.059Z,29.83
2018-03-26T09:15:29.983Z,39.20
2018-03-26T09:17:57.897Z,30.55
2018-03-26T09:20:25.803Z,27.13
2018-03-26T09:22:53.751Z,34.08
2018-03-26T09:25:21.656Z,39.38
2018-03-26T09:27:49.567Z,29.48
2018-03-26T09:30:17.507Z,21.25
2018-03-26T09:32:45.434Z,21.50
2018-03-26T09:35:13.360Z,27.42
2018-03-26T09:37:41.321Z,27.00
2018-03-26T09:40:09.229Z,59.47
2018-03-26T09:42:37.186Z,37.20
2018-03-26T09:45:05.112Z,41.00
2018-03-26T09:47:33.020Z,36.20
2018-03-26T09:50:00.952Z,42.55
2018-03-26T09:52:29.159Z,30.95
2018-03-26T09:54:57.079Z,34.10
2018-03-26T09:57:25.000Z,39.83
2018-03-26T09:59:52.952Z,41.95
2018-03-26T10:02:20.883Z,38.35
2018-03-26T10:04:49.123Z,36.63
2018-03-26T10:07:17.043Z,35.15
2018-03-26T10:09:44.953Z,33.95
2018-03-26T10:12:12.903Z,36.90
2018-03-26T10:14:40.981Z,37.75
2018-03-26T10:17:08.914Z,36.15
2018-03-26T10:19:36.823Z,48.33
2018-03-26T10:22:05.087Z,40.60
2018-03-26T10:24:32.999Z,33.38
2018-03-26T10:27:00.924Z,40.28
2018-03-26T10:29:28.840Z,33.00
2018-03-26T10:31:56.747Z,33.93
2018-03-26T10:34:24.692Z,29.90
2018-03-26T10:36:52.620Z,23.38
2018-03-26T10:39:20.522Z,20.90
2018-03-26T10:41:48.615Z,23.02
2018-03-26T10:44:16.580Z,25.65
2018-03-26T10:46:44.527Z,31.77
2018-03-26T10:49:12.455Z,31.63
2018-03-26T10:51:40.379Z,34.70
2018-03-26T10:54:15.236Z,36.75
2018-03-26T10:56:43.174Z,29.70
2018-03-26T10:59:11.076Z,31.93
2018-03-26T11:01:39.327Z,32.47
2018-03-26T11:04:07.255Z,29.87
2018-03-26T11:09:12.151Z,32.27
2018-03-26T11:11:40.048Z,30.63
2018-03-26T11:14:07.973Z,20.70
2018-03-26T11:16:36.189Z,19.07
2018-03-26T11:19:04.087Z,23.50
2018-03-26T11:21:32.027Z,21.90
2018-03-26T11:23:59.983Z,23.23
2018-03-26T11:26:27.929Z,22.17
2018-03-26T11:28:55.875Z,16.47
2018-03-26T11:31:23.831Z,17.43
2018-03-26T11:33:51.739Z,14.00
2018-03-26T11:36:19.689Z,13.23
2018-03-26T11:38:47.545Z,12.80
2018-03-26T11:41:15.497Z,11.53
2018-03-26T11:43:43.471Z,11.67
2018-03-26T11:46:11.404Z,10.20
2018-03-26T11:48:39.303Z,9.85
2018-03-26T11:51:07.208Z,10.27
2018-03-26T11:53:35.151Z,11.90
2018-03-26T11:56:03.257Z,14.07
2018-03-26T11:58:31.166Z,8.93
2018-03-26T12:00:59.075Z,13.77
2018-03-26T12:03:27.024Z,10.90
2018-03-26T12:05:54.931Z,12.30
2018-03-26T12:08:22.864Z,10.47
2018-03-26T12:10:59.703Z,18.30
2018-03-26T12:13:28.083Z,12.33
2018-03-26T12:15:56.273Z,16.07
2018-03-26T12:18:29.056Z,10.73
2018-03-26T12:21:01.865Z,10.20
2018-03-26T12:23:36.348Z,14.63
2018-03-26T12:26:04.280Z,11.90
2018-03-26T12:28:38.611Z,13.20
2018-03-26T12:31:06.587Z,10.47
2018-03-26T12:33:40.585Z,16.80
2018-03-26T12:36:08.742Z,12.20
2018-03-26T12:38:36.777Z,19.60
2018-03-26T12:41:04.671Z,13.77
2018-03-26T12:43:32.661Z,14.60
2018-03-26T12:46:07.047Z,13.25
2018-03-26T12:48:35.393Z,17.17
2018-03-26T12:51:09.950Z,13.93
2018-03-26T12:53:38.127Z,15.93
2018-03-26T12:56:06.078Z,14.23
2018-03-26T12:58:40.137Z,9.70
2018-03-26T13:01:14.160Z,14.23
2018-03-26T13:03:42.396Z,14.53
2018-03-26T13:06:10.308Z,13.50
2018-03-26T13:08:38.251Z,10.00
2018-03-26T13:11:06.207Z,11.03
2018-03-26T13:13:34.135Z,11.13
2018-03-26T13:16:02.619Z,12.37
2018-03-26T13:18:30.595Z,9.30
2018-03-26T13:20:58.517Z,12.57
2018-03-26T13:23:26.647Z,13.53
2018-03-26T13:25:54.548Z,11.17
2018-03-26T13:28:22.475Z,10.53
2018-03-26T13:30:50.399Z,7.87
2018-03-26T13:33:18.299Z,11.60
2018-03-26T13:35:46.212Z,6.60
2018-03-26T13:38:14.388Z,8.70
2018-03-26T13:40:42.323Z,7.27
2018-03-26T13:43:10.269Z,8.13
2018-03-26T13:45:38.208Z,8.57
2018-03-26T13:48:06.207Z,12.80
2018-03-26T13:50:34.131Z,6.53
2018-03-26T13:53:02.066Z,7.90
2018-03-26T13:55:29.991Z,12.57
2018-03-26T13:57:57.913Z,11.97
2018-03-26T14:00:25.815Z,9.80
2018-03-26T14:02:53.720Z,16.00
2018-03-26T14:05:21.643Z,9.60
2018-03-26T14:07:49.555Z,11.10
2018-03-26T14:10:24.111Z,9.80
2018-03-26T14:12:58.128Z,13.10
2018-03-26T14:15:32.035Z,10.30
2018-03-26T14:18:00.834Z,9.77
2018-03-26T14:20:28.776Z,10.40
2018-03-26T14:22:56.733Z,12.00
2018-03-26T14:25:24.667Z,9.20
2018-03-26T14:27:52.596Z,16.10
2018-03-26T14:30:20.512Z,14.63
2018-03-26T14:32:48.407Z,16.63
2018-03-26T14:35:31.265Z,10.37
2018-03-26T14:37:59.191Z,15.40
2018-03-26T14:40:27.114Z,12.10
2018-03-26T14:42:55.015Z,17.83
2018-03-26T14:45:22.971Z,14.17
2018-03-26T14:47:50.860Z,15.80
2018-03-26T14:50:18.742Z,16.70
2018-03-26T14:52:53.645Z,19.40
2018-03-26T14:55:21.563Z,18.73
2018-03-26T14:57:49.459Z,13.80
2018-03-26T15:00:17.451Z,19.23
2018-03-26T15:02:45.377Z,12.10
2018-03-26T15:05:13.278Z,9.70
2018-03-26T15:07:41.201Z,5.50
2018-03-26T15:10:09.108Z,9.93
2018-03-26T15:12:37.229Z,7.30
2018-03-26T15:15:05.140Z,8.10
2018-03-26T15:17:33.050Z,4.60
2018-03-26T15:20:00.971Z,11.60
2018-03-26T15:22:28.855Z,8.17
2018-03-26T15:24:56.784Z,6.90
2018-03-26T15:27:24.764Z,6.67
2018-03-26T15:29:52.623Z,7.33
2018-03-26T15:32:20.539Z,8.07
2018-03-26T15:34:48.453Z,5.40
2018-03-26T15:37:16.387Z,9.43
2018-03-26T15:39:44.355Z,5.50
2018-03-26T15:42:12.282Z,11.40
2018-03-26T15:44:40.187Z,9.23
2018-03-26T15:47:08.076Z,8.50
2018-03-26T15:49:35.975Z,5.70
2018-03-26T15:52:03.893Z,5.23
2018-03-26T15:54:31.807Z,11.43
2018-03-26T15:56:59.720Z,14.73
2018-03-26T15:59:27.623Z,10.80
2018-03-26T16:01:55.467Z,6.40
2018-03-26T16:04:23.403Z,15.03
2018-03-26T16:06:51.302Z,12.53
2018-03-26T16:09:19.204Z,11.10
2018-03-26T16:11:47.126Z,7.10
2018-03-26T16:14:15.252Z,9.63
2018-03-26T16:16:43.210Z,11.10
2018-03-26T16:19:11.124Z,13.57
2018-03-26T16:21:39.051Z,9.50
2018-03-26T16:24:06.951Z,12.07
2018-03-26T16:26:34.880Z,16.03
2018-03-26T16:29:02.804Z,9.60
2018-03-26T16:31:30.727Z,10.50
2018-03-26T16:33:58.651Z,7.83
2018-03-26T16:36:26.549Z,5.07
2018-03-26T16:38:54.466Z,12.33
2018-03-26T16:41:28.435Z,8.97
2018-03-26T16:43:56.387Z,15.93
2018-03-26T16:46:24.300Z,14.87
2018-03-26T16:48:52.247Z,10.67
2018-03-26T16:51:20.173Z,7.47
2018-03-26T16:53:48.131Z,11.83
2018-03-26T16:56:16.054Z,9.20
2018-03-26T16:58:43.999Z,13.10
2018-03-26T17:01:11.920Z,14.10
2018-03-26T17:03:39.867Z,13.37
2018-03-26T17:06:07.765Z,13.53
2018-03-26T17:08:35.687Z,9.40
2018-03-26T17:11:03.588Z,8.20
2018-03-26T17:13:31.642Z,5.23
2018-03-26T17:15:59.828Z,5.67
2018-03-26T17:18:27.735Z,7.60
2018-03-26T17:20:55.668Z,5.03
2018-03-26T17:23:23.579Z,4.80
2018-03-26T17:25:51.479Z,5.43
2018-03-26T17:28:19.576Z,9.03
2018-03-26T17:30:47.489Z,7.27
2018-03-26T17:33:15.392Z,5.03
2018-03-26T17:35:43.480Z,8.63
2018-03-26T17:38:11.385Z,12.37
2018-03-26T17:40:39.327Z,7.90
2018-03-26T17:43:07.224Z,6.70
2018-03-26T17:45:35.124Z,8.30
2018-03-26T17:48:03.047Z,8.80
2018-03-26T17:50:30.963Z,10.20
2018-03-26T17:52:58.868Z,6.20
2018-03-26T17:55:26.791Z,6.40
2018-03-26T17:57:54.711Z,6.23
2018-03-26T18:00:22.651Z,5.93
2018-03-26T18:02:50.548Z,5.00
2018-03-26T18:05:18.479Z,6.33
2018-03-26T18:07:47.647Z,8.30
2018-03-26T18:10:15.697Z,4.90
2018-03-26T18:12:43.769Z,11.90
2018-03-26T18:15:11.760Z,10.87
2018-03-26T18:17:40.334Z,5.17
2018-03-26T18:20:08.585Z,6.90
2018-03-26T18:22:36.565Z,10.57
2018-03-26T18:25:04.628Z,10.50
2018-03-26T18:27:32.690Z,14.63
2018-03-26T18:30:00.678Z,9.60
2018-03-26T18:32:28.597Z,8.17
2018-03-26T18:34:56.547Z,7.80
2018-03-26T18:37:24.450Z,10.00
2018-03-26T18:39:52.342Z,12.37
2018-03-26T18:42:20.519Z,10.00
2018-03-26T18:44:48.418Z,11.73
2018-03-26T18:47:16.345Z,12.13
2018-03-26T18:49:44.275Z,15.47
2018-03-26T18:52:12.213Z,8.10
2018-03-26T18:54:41.262Z,10.73
2018-03-26T18:57:09.602Z,10.40
2018-03-26T18:59:37.467Z,14.87
2018-03-26T19:02:05.392Z,18.50
2018-03-26T19:04:33.744Z,11.83
2018-03-26T19:07:02.075Z,10.90
2018-03-26T19:09:30.183Z,11.60
2018-03-26T19:11:58.418Z,10.00
2018-03-26T19:14:26.402Z,14.00
2018-03-26T19:16:54.351Z,14.93
2018-03-26T19:19:22.770Z,12.97
2018-03-26T19:21:50.703Z,13.67
2018-03-26T19:24:19.498Z,18.63
2018-03-26T19:26:50.061Z,12.07
2018-03-26T19:29:18.983Z,22.03
2018-03-26T19:31:47.552Z,19.13
2018-03-26T19:34:15.575Z,18.50
2018-03-26T19:36:44.796Z,19.73
2018-03-26T19:39:12.990Z,14.37
2018-03-26T19:41:40.937Z,23.43
2018-03-26T19:44:08.879Z,19.33
2018-03-26T19:46:36.788Z,19.83
2018-03-26T19:49:05.004Z,20.37
2018-03-26T19:51:32.905Z,23.40
2018-03-26T19:54:00.812Z,23.53
2018-03-26T19:56:28.738Z,16.33
2018-03-26T19:58:56.625Z,24.00
2018-03-26T20:01:24.543Z,23.10
2018-03-26T20:03:59.739Z,19.10
2018-03-26T20:06:27.631Z,24.03
2018-03-26T20:08:55.521Z,18.83
2018-03-26T20:11:23.432Z,27.03
2018-03-26T20:13:51.386Z,27.87
2018-03-26T20:16:19.316Z,21.93
2018-03-26T20:18:47.248Z,23.90
2018-03-26T20:21:15.392Z,24.97
2018-03-26T20:23:43.307Z,27.83
2018-03-26T20:26:11.213Z,29.87
2018-03-26T20:28:39.175Z,20.40
2018-03-26T20:31:07.100Z,21.10
2018-03-26T20:33:35.017Z,26.53
2018-03-26T20:36:02.952Z,22.03
2018-03-26T20:38:30.946Z,29.33
2018-03-26T20:40:58.836Z,30.05
2018-03-26T20:43:26.779Z,24.60
2018-03-26T20:45:54.688Z,25.40
2018-03-26T20:48:22.606Z,32.23
2018-03-26T20:50:50.547Z,26.57
2018-03-26T20:53:18.499Z,24.40
2018-03-26T20:55:46.419Z,24.43
2018-03-26T20:58:14.355Z,23.52
2018-03-26T21:00:42.260Z,19.20
2018-03-26T21:03:10.175Z,28.67
2018-03-26T21:05:38.101Z,27.33
2018-03-26T21:08:06.026Z,22.20
2018-03-26T21:10:33.952Z,25.00
2018-03-26T21:13:01.895Z,29.63
2018-03-26T21:15:29.810Z,19.87
2018-03-26T21:17:57.716Z,26.60
2018-03-26T21:20:25.627Z,23.07
2018-03-26T21:22:53.855Z,20.48
2018-03-26T21:25:21.751Z,18.00
2018-03-26T21:27:49.669Z,17.60
2018-03-26T21:30:17.570Z,21.62
2018-03-26T21:32:45.470Z,23.93
2018-03-26T21:35:13.392Z,19.67
2018-03-26T21:37:41.335Z,22.70
2018-03-26T21:40:09.249Z,23.80
2018-03-26T21:42:37.168Z,33.47
2018-03-26T21:45:05.102Z,28.98
2018-03-26T21:47:32.988Z,20.90
2018-03-26T21:50:00.922Z,23.90
2018-03-26T21:52:28.881Z,21.80
2018-03-26T21:54:56.772Z,30.95
2018-03-26T21:57:24.699Z,22.67
2018-03-26T21:59:52.612Z,23.83
2018-03-26T22:02:20.498Z,23.55
2018-03-26T22:04:48.415Z,19.57
2018-03-26T22:07:16.339Z,28.45
2018-03-26T22:09:44.259Z,30.42
2018-03-26T22:12:12.178Z,23.38
2018-03-26T22:14:40.095Z,23.73
2018-03-26T22:17:08.015Z,31.87
2018-03-26T22:19:35.967Z,35.08
2018-03-26T22:22:04.061Z,28.05
2018-03-26T22:24:32.010Z,35.93
2018-03-26T22:26:59.968Z,32.92
2018-03-26T22:29:27.867Z,32.27
2018-03-26T22:31:55.763Z,35.03
2018-03-26T22:34:23.668Z,37.65
2018-03-26T22:36:51.599Z,46.63
2018-03-26T22:39:19.509Z,34.28
2018-03-26T22:41:47.409Z,34.40
2018-03-26T22:44:15.499Z,35.35
2018-03-26T22:46:43.448Z,34.70
2018-03-26T22:49:11.354Z,35.13
2018-03-26T22:51:39.292Z,32.17
2018-03-26T22:54:07.195Z,39.73
2018-03-26T22:56:35.103Z,39.50
2018-03-26T22:59:03.032Z,36.50
2018-03-26T23:01:30.931Z,37.85
2018-03-26T23:03:58.848Z,36.00
2018-03-26T23:06:26.759Z,38.43
2018-03-26T23:08:54.697Z,35.57
2018-03-26T23:11:22.591Z,39.17
2018-03-26T23:13:50.538Z,35.80
2018-03-26T23:16:18.447Z,30.70
2018-03-26T23:18:46.359Z,38.97
2018-03-26T23:21:14.391Z,28.75
2018-03-26T23:23:42.328Z,44.47
2018-03-26T23:26:10.568Z,37.33
2018-03-26T23:28:38.507Z,40.63
2018-03-26T23:31:06.405Z,40.63
2018-03-26T23:33:34.333Z,35.60
2018-03-26T23:36:02.240Z,37.30
2018-03-26T23:38:30.171Z,46.97
2018-03-26T23:40:58.149Z,36.67
2018-03-26T23:43:26.097Z,39.80
2018-03-26T23:45:54.014Z,38.25
2018-03-26T23:48:21.929Z,42.17
2018-03-26T23:50:49.860Z,39.92
2018-03-26T23:53:17.763Z,40.15
2018-03-26T23:55:45.671Z,49.30
2018-03-26T23:58:13.619Z,42.97
